sensor_id;sensor_type;location;lat;lon;timestamp;P1;durP1;ratioP1;P2;durP2;ratioP2
577;SDS011;275;48.492;9.214;2024-03-02T00:00:34;19.15;;;17.42;;
577;SDS011;275;48.492;9.214;2024-03-02T00:03:01;21.83;;;19.90;;
577;SDS011;275;48.492;9.214;2024-03-02T00:05:29;21.73;;;19.63;;
577;SDS011;275;48.492;9.214;2024-03-02T00:07:57;23.23;;;21.05;;
577;SDS011;275;48.492;9.214;2024-03-02T00:10:25;21.83;;;19.83;;
577;SDS011;275;48.492;9.214;2024-03-02T00:12:56;21.90;;;19.67;;
577;SDS011;275;48.492;9.214;2024-03-02T00:15:42;20.92;;;18.92;;
577;SDS011;275;48.492;9.214;2024-03-02T00:18:13;20.35;;;18.45;;
577;SDS011;275;48.492;9.214;2024-03-02T00:20:42;20.42;;;18.52;;
577;SDS011;275;48.492;9.214;2024-03-02T00:23:10;20.40;;;18.50;;
577;SDS011;275;48.492;9.214;2024-03-02T00:25:41;21.15;;;19.02;;
577;SDS011;275;48.492;9.214;2024-03-02T00:28:11;21.60;;;19.70;;
577;SDS011;275;48.492;9.214;2024-03-02T00:33:26;21.42;;;19.42;;
577;SDS011;275;48.492;9.214;2024-03-02T00:35:56;22.23;;;20.13;;
577;SDS011;275;48.492;9.214;2024-03-02T00:38:25;21.98;;;19.92;;
577;SDS011;275;48.492;9.214;2024-03-02T00:40:52;22.35;;;20.15;;
577;SDS011;275;48.492;9.214;2024-03-02T00:43:37;20.33;;;18.42;;
577;SDS011;275;48.492;9.214;2024-03-02T00:46:08;21.40;;;19.40;;
577;SDS011;275;48.492;9.214;2024-03-02T00:48:37;21.20;;;19.27;;
577;SDS011;275;48.492;9.214;2024-03-02T00:51:04;21.27;;;19.17;;
577;SDS011;275;48.492;9.214;2024-03-02T00:53:32;20.85;;;18.90;;
577;SDS011;275;48.492;9.214;2024-03-02T00:55:59;23.42;;;20.95;;
577;SDS011;275;48.492;9.214;2024-03-02T00:58:27;22.42;;;20.10;;
577;SDS011;275;48.492;9.214;2024-03-02T01:00:54;25.00;;;22.60;;
577;SDS011;275;48.492;9.214;2024-03-02T01:03:21;21.98;;;19.95;;
577;SDS011;275;48.492;9.214;2024-03-02T01:05:48;25.10;;;22.70;;
577;SDS011;275;48.492;9.214;2024-03-02T01:08:14;25.73;;;23.20;;
577;SDS011;275;48.492;9.214;2024-03-02T01:10:43;24.73;;;22.52;;
577;SDS011;275;48.492;9.214;2024-03-02T01:13:10;21.80;;;19.65;;
577;SDS011;275;48.492;9.214;2024-03-02T01:15:36;25.00;;;22.65;;
577;SDS011;275;48.492;9.214;2024-03-02T01:18:04;23.45;;;21.17;;
577;SDS011;275;48.492;9.214;2024-03-02T01:20:31;27.02;;;24.38;;
577;SDS011;275;48.492;9.214;2024-03-02T01:22:58;23.95;;;21.65;;
577;SDS011;275;48.492;9.214;2024-03-02T01:25:24;21.77;;;19.88;;
577;SDS011;275;48.492;9.214;2024-03-02T01:27:52;21.58;;;19.58;;
577;SDS011;275;48.492;9.214;2024-03-02T01:30:19;21.52;;;19.42;;
577;SDS011;275;48.492;9.214;2024-03-02T01:32:46;21.60;;;19.70;;
577;SDS011;275;48.492;9.214;2024-03-02T01:35:13;21.40;;;19.40;;
577;SDS011;275;48.492;9.214;2024-03-02T01:37:41;22.80;;;20.75;;
577;SDS011;275;48.492;9.214;2024-03-02T01:40:08;21.05;;;19.13;;
577;SDS011;275;48.492;9.214;2024-03-02T01:42:36;22.15;;;20.25;;
577;SDS011;275;48.492;9.214;2024-03-02T01:45:05;21.63;;;19.58;;
577;SDS011;275;48.492;9.214;2024-03-02T01:47:34;25.65;;;23.15;;
577;SDS011;275;48.492;9.214;2024-03-02T01:50:01;22.38;;;20.38;;
577;SDS011;275;48.492;9.214;2024-03-02T01:52:28;23.20;;;21.20;;
577;SDS011;275;48.492;9.214;2024-03-02T01:54:55;23.55;;;21.25;;
577;SDS011;275;48.492;9.214;2024-03-02T01:57:22;24.60;;;22.30;;
577;SDS011;275;48.492;9.214;2024-03-02T01:59:49;24.30;;;21.85;;
577;SDS011;275;48.492;9.214;2024-03-02T02:02:17;23.88;;;21.77;;
577;SDS011;275;48.492;9.214;2024-03-02T02:04:45;22.02;;;20.00;;
577;SDS011;275;48.492;9.214;2024-03-02T02:07:12;23.48;;;21.27;;
577;SDS011;275;48.492;9.214;2024-03-02T02:09:39;23.27;;;21.08;;
577;SDS011;275;48.492;9.214;2024-03-02T02:12:07;25.38;;;23.08;;
577;SDS011;275;48.492;9.214;2024-03-02T02:14:34;22.60;;;20.40;;
577;SDS011;275;48.492;9.214;2024-03-02T02:17:01;22.92;;;20.83;;
577;SDS011;275;48.492;9.214;2024-03-02T02:19:29;22.50;;;20.50;;
577;SDS011;275;48.492;9.214;2024-03-02T02:21:58;23.30;;;21.15;;
577;SDS011;275;48.492;9.214;2024-03-02T02:24:24;23.98;;;21.52;;
577;SDS011;275;48.492;9.214;2024-03-02T02:26:51;22.38;;;20.23;;
577;SDS011;275;48.492;9.214;2024-03-02T02:29:18;22.73;;;20.63;;
577;SDS011;275;48.492;9.214;2024-03-02T02:31:45;23.52;;;21.23;;
577;SDS011;275;48.492;9.214;2024-03-02T02:34:13;23.92;;;21.67;;
577;SDS011;275;48.492;9.214;2024-03-02T02:36:40;22.42;;;20.33;;
577;SDS011;275;48.492;9.214;2024-03-02T02:39:10;24.38;;;22.10;;
577;SDS011;275;48.492;9.214;2024-03-02T02:41:38;26.20;;;23.73;;
577;SDS011;275;48.492;9.214;2024-03-02T02:44:05;26.45;;;23.88;;
577;SDS011;275;48.492;9.214;2024-03-02T02:46:31;27.50;;;24.80;;
577;SDS011;275;48.492;9.214;2024-03-02T02:48:58;25.15;;;22.70;;
577;SDS011;275;48.492;9.214;2024-03-02T02:51:25;28.30;;;25.50;;
577;SDS011;275;48.492;9.214;2024-03-02T02:53:52;27.85;;;25.25;;
577;SDS011;275;48.492;9.214;2024-03-02T02:56:20;26.65;;;24.20;;
577;SDS011;275;48.492;9.214;2024-03-02T02:58:47;27.48;;;24.75;;
577;SDS011;275;48.492;9.214;2024-03-02T03:01:14;28.60;;;25.70;;
577;SDS011;275;48.492;9.214;2024-03-02T03:03:42;27.73;;;24.95;;
577;SDS011;275;48.492;9.214;2024-03-02T03:06:09;29.13;;;25.95;;
577;SDS011;275;48.492;9.214;2024-03-02T03:08:35;29.60;;;26.55;;
577;SDS011;275;48.492;9.214;2024-03-02T03:11:03;31.35;;;28.23;;
577;SDS011;275;48.492;9.214;2024-03-02T03:13:32;31.20;;;27.95;;
577;SDS011;275;48.492;9.214;2024-03-02T03:15:59;27.05;;;24.30;;
577;SDS011;275;48.492;9.214;2024-03-02T03:18:26;28.23;;;25.50;;
577;SDS011;275;48.492;9.214;2024-03-02T03:20:53;28.13;;;25.52;;
577;SDS011;275;48.492;9.214;2024-03-02T03:23:20;26.92;;;24.38;;
577;SDS011;275;48.492;9.214;2024-03-02T03:25:47;26.88;;;24.33;;
577;SDS011;275;48.492;9.214;2024-03-02T03:28:14;27.52;;;24.83;;
577;SDS011;275;48.492;9.214;2024-03-02T03:30:41;30.43;;;27.47;;
577;SDS011;275;48.492;9.214;2024-03-02T03:33:08;31.35;;;28.33;;
577;SDS011;275;48.492;9.214;2024-03-02T03:35:35;31.40;;;28.45;;
577;SDS011;275;48.492;9.214;2024-03-02T03:38:03;30.08;;;27.20;;
577;SDS011;275;48.492;9.214;2024-03-02T03:40:30;29.00;;;26.10;;
577;SDS011;275;48.492;9.214;2024-03-02T03:42:57;28.60;;;25.80;;
577;SDS011;275;48.492;9.214;2024-03-02T03:45:25;27.90;;;25.10;;
577;SDS011;275;48.492;9.214;2024-03-02T03:47:53;31.67;;;28.67;;
577;SDS011;275;48.492;9.214;2024-03-02T03:50:20;28.80;;;26.05;;
577;SDS011;275;48.492;9.214;2024-03-02T03:52:47;29.20;;;26.45;;
577;SDS011;275;48.492;9.214;2024-03-02T03:55:14;25.92;;;23.42;;
577;SDS011;275;48.492;9.214;2024-03-02T03:57:41;26.55;;;24.08;;
577;SDS011;275;48.492;9.214;2024-03-02T04:00:08;26.63;;;24.13;;
577;SDS011;275;48.492;9.214;2024-03-02T04:02:37;25.35;;;22.83;;
577;SDS011;275;48.492;9.214;2024-03-02T04:05:05;24.33;;;21.92;;
577;SDS011;275;48.492;9.214;2024-03-02T04:07:34;23.77;;;21.52;;
577;SDS011;275;48.492;9.214;2024-03-02T04:10:05;22.48;;;20.38;;
577;SDS011;275;48.492;9.214;2024-03-02T04:12:34;20.35;;;18.55;;
577;SDS011;275;48.492;9.214;2024-03-02T04:15:01;22.17;;;20.02;;
577;SDS011;275;48.492;9.214;2024-03-02T04:17:29;22.00;;;19.85;;
577;SDS011;275;48.492;9.214;2024-03-02T04:19:58;21.15;;;19.05;;
577;SDS011;275;48.492;9.214;2024-03-02T04:22:26;19.42;;;17.58;;
577;SDS011;275;48.492;9.214;2024-03-02T04:24:53;19.23;;;17.33;;
577;SDS011;275;48.492;9.214;2024-03-02T04:27:20;23.83;;;21.60;;
577;SDS011;275;48.492;9.214;2024-03-02T04:29:46;20.60;;;18.60;;
577;SDS011;275;48.492;9.214;2024-03-02T04:32:12;19.48;;;17.67;;
577;SDS011;275;48.492;9.214;2024-03-02T04:34:39;20.80;;;18.90;;
577;SDS011;275;48.492;9.214;2024-03-02T04:37:07;19.83;;;17.85;;
577;SDS011;275;48.492;9.214;2024-03-02T04:39:36;18.33;;;16.67;;
577;SDS011;275;48.492;9.214;2024-03-02T04:42:02;18.77;;;16.95;;
577;SDS011;275;48.492;9.214;2024-03-02T04:44:29;19.30;;;17.35;;
577;SDS011;275;48.492;9.214;2024-03-02T04:46:56;17.80;;;16.17;;
577;SDS011;275;48.492;9.214;2024-03-02T04:49:23;19.42;;;17.63;;
577;SDS011;275;48.492;9.214;2024-03-02T04:51:50;19.15;;;17.35;;
577;SDS011;275;48.492;9.214;2024-03-02T04:54:17;18.17;;;16.45;;
577;SDS011;275;48.492;9.214;2024-03-02T04:56:45;19.10;;;17.40;;
577;SDS011;275;48.492;9.214;2024-03-02T04:59:15;17.38;;;15.73;;
577;SDS011;275;48.492;9.214;2024-03-02T05:01:43;18.98;;;17.30;;
577;SDS011;275;48.492;9.214;2024-03-02T05:04:10;18.17;;;16.58;;
577;SDS011;275;48.492;9.214;2024-03-02T05:06:37;16.13;;;14.63;;
577;SDS011;275;48.492;9.214;2024-03-02T05:09:05;17.73;;;16.02;;
577;SDS011;275;48.492;9.214;2024-03-02T05:11:32;15.93;;;14.30;;
577;SDS011;275;48.492;9.214;2024-03-02T05:14:14;15.77;;;14.35;;
577;SDS011;275;48.492;9.214;2024-03-02T05:16:41;15.50;;;14.05;;
577;SDS011;275;48.492;9.214;2024-03-02T05:19:07;16.02;;;14.52;;
577;SDS011;275;48.492;9.214;2024-03-02T05:21:34;16.83;;;15.18;;
577;SDS011;275;48.492;9.214;2024-03-02T05:24:01;17.70;;;16.10;;
577;SDS011;275;48.492;9.214;2024-03-02T05:26:28;16.30;;;14.88;;
577;SDS011;275;48.492;9.214;2024-03-02T05:28:55;17.15;;;15.70;;
577;SDS011;275;48.492;9.214;2024-03-02T05:31:23;16.00;;;14.60;;
577;SDS011;275;48.492;9.214;2024-03-02T05:33:49;17.02;;;15.43;;
577;SDS011;275;48.492;9.214;2024-03-02T05:36:17;19.65;;;17.67;;
577;SDS011;275;48.492;9.214;2024-03-02T05:38:45;19.02;;;17.23;;
577;SDS011;275;48.492;9.214;2024-03-02T05:41:12;19.48;;;17.65;;
577;SDS011;275;48.492;9.214;2024-03-02T05:43:39;19.80;;;17.85;;
577;SDS011;275;48.492;9.214;2024-03-02T05:46:06;18.75;;;16.95;;
577;SDS011;275;48.492;9.214;2024-03-02T05:48:34;18.05;;;16.15;;
577;SDS011;275;48.492;9.214;2024-03-02T05:51:01;15.60;;;14.20;;
577;SDS011;275;48.492;9.214;2024-03-02T05:53:28;17.95;;;16.27;;
577;SDS011;275;48.492;9.214;2024-03-02T05:55:54;17.00;;;15.40;;
577;SDS011;275;48.492;9.214;2024-03-02T05:58:21;16.60;;;15.15;;
577;SDS011;275;48.492;9.214;2024-03-02T06:00:58;17.75;;;16.15;;
577;SDS011;275;48.492;9.214;2024-03-02T06:03:25;17.65;;;16.05;;
577;SDS011;275;48.492;9.214;2024-03-02T06:05:54;16.80;;;15.20;;
577;SDS011;275;48.492;9.214;2024-03-02T06:08:21;17.10;;;15.60;;
577;SDS011;275;48.492;9.214;2024-03-02T06:10:48;18.13;;;16.52;;
577;SDS011;275;48.492;9.214;2024-03-02T06:13:15;19.00;;;17.35;;
577;SDS011;275;48.492;9.214;2024-03-02T06:15:41;19.52;;;17.50;;
577;SDS011;275;48.492;9.214;2024-03-02T06:18:08;19.55;;;17.70;;
577;SDS011;275;48.492;9.214;2024-03-02T06:20:35;20.25;;;18.38;;
577;SDS011;275;48.492;9.214;2024-03-02T06:23:03;18.60;;;16.90;;
577;SDS011;275;48.492;9.214;2024-03-02T06:25:30;20.63;;;18.63;;
577;SDS011;275;48.492;9.214;2024-03-02T06:27:57;17.70;;;16.10;;
577;SDS011;275;48.492;9.214;2024-03-02T06:30:24;18.13;;;16.52;;
577;SDS011;275;48.492;9.214;2024-03-02T06:32:51;15.70;;;14.30;;
577;SDS011;275;48.492;9.214;2024-03-02T06:35:17;15.48;;;14.05;;
577;SDS011;275;48.492;9.214;2024-03-02T06:37:44;14.63;;;13.27;;
577;SDS011;275;48.492;9.214;2024-03-02T06:40:12;13.88;;;12.57;;
577;SDS011;275;48.492;9.214;2024-03-02T06:42:39;11.98;;;10.77;;
577;SDS011;275;48.492;9.214;2024-03-02T06:45:06;13.73;;;12.52;;
577;SDS011;275;48.492;9.214;2024-03-02T06:47:33;13.15;;;11.95;;
577;SDS011;275;48.492;9.214;2024-03-02T06:50:00;13.45;;;12.25;;
577;SDS011;275;48.492;9.214;2024-03-02T06:52:26;12.80;;;11.70;;
577;SDS011;275;48.492;9.214;2024-03-02T06:54:53;11.38;;;10.38;;
577;SDS011;275;48.492;9.214;2024-03-02T06:57:21;12.80;;;11.60;;
577;SDS011;275;48.492;9.214;2024-03-02T06:59:49;11.95;;;10.88;;
577;SDS011;275;48.492;9.214;2024-03-02T07:02:19;12.05;;;10.95;;
577;SDS011;275;48.492;9.214;2024-03-02T07:04:46;11.05;;;9.95;;
577;SDS011;275;48.492;9.214;2024-03-02T07:07:13;13.50;;;12.25;;
577;SDS011;275;48.492;9.214;2024-03-02T07:09:39;12.25;;;11.15;;
577;SDS011;275;48.492;9.214;2024-03-02T07:12:06;12.90;;;11.70;;
577;SDS011;275;48.492;9.214;2024-03-02T07:14:35;12.68;;;11.38;;
577;SDS011;275;48.492;9.214;2024-03-02T07:17:36;11.70;;;10.50;;
577;SDS011;275;48.492;9.214;2024-03-02T07:20:03;12.48;;;11.35;;
577;SDS011;275;48.492;9.214;2024-03-02T07:22:31;12.23;;;11.13;;
577;SDS011;275;48.492;9.214;2024-03-02T07:24:58;13.13;;;11.90;;
577;SDS011;275;48.492;9.214;2024-03-02T07:27:25;12.38;;;11.23;;
577;SDS011;275;48.492;9.214;2024-03-02T07:29:53;13.05;;;11.85;;
577;SDS011;275;48.492;9.214;2024-03-02T07:32:20;13.60;;;12.30;;
577;SDS011;275;48.492;9.214;2024-03-02T07:34:47;11.85;;;10.75;;
577;SDS011;275;48.492;9.214;2024-03-02T07:37:16;13.52;;;12.27;;
577;SDS011;275;48.492;9.214;2024-03-02T07:39:43;13.27;;;11.98;;
577;SDS011;275;48.492;9.214;2024-03-02T07:42:10;13.15;;;11.90;;
577;SDS011;275;48.492;9.214;2024-03-02T07:44:37;13.38;;;12.05;;
577;SDS011;275;48.492;9.214;2024-03-02T07:47:06;13.18;;;11.98;;
577;SDS011;275;48.492;9.214;2024-03-02T07:49:33;11.52;;;10.43;;
577;SDS011;275;48.492;9.214;2024-03-02T07:52:00;12.10;;;11.00;;
577;SDS011;275;48.492;9.214;2024-03-02T07:54:27;12.32;;;11.18;;
577;SDS011;275;48.492;9.214;2024-03-02T07:56:53;12.80;;;11.55;;
577;SDS011;275;48.492;9.214;2024-03-02T07:59:20;12.63;;;11.45;;
577;SDS011;275;48.492;9.214;2024-03-02T08:01:48;12.60;;;11.48;;
577;SDS011;275;48.492;9.214;2024-03-02T08:04:17;12.00;;;10.82;;
577;SDS011;275;48.492;9.214;2024-03-02T08:06:45;12.45;;;11.25;;
577;SDS011;275;48.492;9.214;2024-03-02T08:09:12;11.85;;;10.75;;
577;SDS011;275;48.492;9.214;2024-03-02T08:11:39;12.05;;;10.95;;
577;SDS011;275;48.492;9.214;2024-03-02T08:14:06;12.18;;;11.07;;
577;SDS011;275;48.492;9.214;2024-03-02T08:16:32;12.60;;;11.40;;
577;SDS011;275;48.492;9.214;2024-03-02T08:18:59;12.30;;;11.02;;
577;SDS011;275;48.492;9.214;2024-03-02T08:21:27;10.95;;;9.95;;
577;SDS011;275;48.492;9.214;2024-03-02T08:23:55;11.60;;;10.50;;
577;SDS011;275;48.492;9.214;2024-03-02T08:26:23;10.20;;;9.23;;
577;SDS011;275;48.492;9.214;2024-03-02T08:28:50;10.13;;;9.18;;
577;SDS011;275;48.492;9.214;2024-03-02T08:31:17;10.27;;;9.38;;
577;SDS011;275;48.492;9.214;2024-03-02T08:33:44;9.90;;;9.00;;
577;SDS011;275;48.492;9.214;2024-03-02T08:36:10;9.82;;;8.93;;
577;SDS011;275;48.492;9.214;2024-03-02T08:38:39;11.40;;;10.27;;
577;SDS011;275;48.492;9.214;2024-03-02T08:41:06;10.35;;;9.30;;
577;SDS011;275;48.492;9.214;2024-03-02T08:43:33;9.32;;;8.50;;
577;SDS011;275;48.492;9.214;2024-03-02T08:46:00;9.80;;;8.88;;
577;SDS011;275;48.492;9.214;2024-03-02T08:48:27;10.40;;;9.23;;
577;SDS011;275;48.492;9.214;2024-03-02T08:50:54;8.85;;;7.95;;
577;SDS011;275;48.492;9.214;2024-03-02T08:53:21;10.38;;;9.43;;
577;SDS011;275;48.492;9.214;2024-03-02T08:55:49;9.48;;;8.48;;
577;SDS011;275;48.492;9.214;2024-03-02T08:58:16;9.93;;;8.90;;
577;SDS011;275;48.492;9.214;2024-03-02T09:00:44;9.23;;;8.32;;
577;SDS011;275;48.492;9.214;2024-03-02T09:03:12;15.38;;;13.98;;
577;SDS011;275;48.492;9.214;2024-03-02T09:05:40;15.15;;;13.75;;
577;SDS011;275;48.492;9.214;2024-03-02T09:08:10;14.20;;;12.90;;
577;SDS011;275;48.492;9.214;2024-03-02T09:10:36;14.15;;;12.85;;
577;SDS011;275;48.492;9.214;2024-03-02T09:13:05;15.10;;;13.80;;
577;SDS011;275;48.492;9.214;2024-03-02T09:15:31;15.50;;;14.15;;
577;SDS011;275;48.492;9.214;2024-03-02T09:18:02;14.73;;;13.30;;
577;SDS011;275;48.492;9.214;2024-03-02T09:20:29;14.73;;;13.43;;
577;SDS011;275;48.492;9.214;2024-03-02T09:22:56;15.27;;;13.85;;
577;SDS011;275;48.492;9.214;2024-03-02T09:25:23;14.55;;;13.25;;
577;SDS011;275;48.492;9.214;2024-03-02T09:27:50;13.95;;;12.73;;
577;SDS011;275;48.492;9.214;2024-03-02T09:30:18;14.98;;;13.68;;
577;SDS011;275;48.492;9.214;2024-03-02T09:32:45;13.68;;;12.48;;
577;SDS011;275;48.492;9.214;2024-03-02T09:35:12;14.10;;;12.80;;
577;SDS011;275;48.492;9.214;2024-03-02T09:37:39;14.27;;;12.88;;
577;SDS011;275;48.492;9.214;2024-03-02T09:40:06;12.50;;;11.35;;
577;SDS011;275;48.492;9.214;2024-03-02T09:42:33;12.98;;;11.70;;
577;SDS011;275;48.492;9.214;2024-03-02T09:45:00;10.85;;;9.85;;
577;SDS011;275;48.492;9.214;2024-03-02T09:47:30;8.45;;;7.20;;
577;SDS011;275;48.492;9.214;2024-03-02T09:49:56;7.85;;;7.15;;
577;SDS011;275;48.492;9.214;2024-03-02T09:52:23;6.70;;;5.35;;
577;SDS011;275;48.492;9.214;2024-03-02T09:54:50;6.22;;;5.32;;
577;SDS011;275;48.492;9.214;2024-03-02T09:57:17;6.17;;;4.87;;
577;SDS011;275;48.492;9.214;2024-03-02T09:59:44;5.23;;;4.57;;
577;SDS011;275;48.492;9.214;2024-03-02T10:02:11;6.57;;;5.00;;
577;SDS011;275;48.492;9.214;2024-03-02T10:04:39;7.70;;;5.90;;
577;SDS011;275;48.492;9.214;2024-03-02T10:07:09;6.47;;;5.30;;
577;SDS011;275;48.492;9.214;2024-03-02T10:09:40;6.20;;;5.33;;
577;SDS011;275;48.492;9.214;2024-03-02T10:12:07;6.77;;;5.97;;
577;SDS011;275;48.492;9.214;2024-03-02T10:14:36;6.07;;;4.90;;
577;SDS011;275;48.492;9.214;2024-03-02T10:17:04;5.20;;;4.30;;
577;SDS011;275;48.492;9.214;2024-03-02T10:19:31;5.17;;;3.73;;
577;SDS011;275;48.492;9.214;2024-03-02T10:22:01;6.10;;;4.60;;
577;SDS011;275;48.492;9.214;2024-03-02T10:24:34;4.73;;;3.10;;
577;SDS011;275;48.492;9.214;2024-03-02T10:27:06;4.20;;;2.77;;
577;SDS011;275;48.492;9.214;2024-03-02T10:29:36;4.20;;;2.90;;
577;SDS011;275;48.492;9.214;2024-03-02T10:32:04;5.30;;;2.90;;
577;SDS011;275;48.492;9.214;2024-03-02T10:34:32;4.43;;;3.13;;
577;SDS011;275;48.492;9.214;2024-03-02T10:36:59;3.73;;;2.47;;
577;SDS011;275;48.492;9.214;2024-03-02T10:39:27;4.10;;;2.83;;
577;SDS011;275;48.492;9.214;2024-03-02T10:41:56;4.50;;;2.80;;
577;SDS011;275;48.492;9.214;2024-03-02T10:44:24;4.60;;;3.03;;
577;SDS011;275;48.492;9.214;2024-03-02T10:46:52;4.33;;;2.80;;
577;SDS011;275;48.492;9.214;2024-03-02T10:49:22;4.27;;;2.87;;
577;SDS011;275;48.492;9.214;2024-03-02T10:51:50;4.87;;;3.17;;
577;SDS011;275;48.492;9.214;2024-03-02T10:54:18;3.93;;;2.37;;
577;SDS011;275;48.492;9.214;2024-03-02T10:56:51;3.87;;;2.33;;
577;SDS011;275;48.492;9.214;2024-03-02T10:59:21;4.47;;;1.97;;
577;SDS011;275;48.492;9.214;2024-03-02T11:01:53;3.30;;;1.70;;
577;SDS011;275;48.492;9.214;2024-03-02T11:04:23;3.17;;;1.57;;
577;SDS011;275;48.492;9.214;2024-03-02T11:06:52;3.97;;;2.20;;
577;SDS011;275;48.492;9.214;2024-03-02T11:09:26;5.37;;;2.20;;
577;SDS011;275;48.492;9.214;2024-03-02T11:11:56;3.93;;;1.93;;
577;SDS011;275;48.492;9.214;2024-03-02T11:14:27;3.23;;;1.67;;
577;SDS011;275;48.492;9.214;2024-03-02T11:16:56;3.43;;;1.90;;
577;SDS011;275;48.492;9.214;2024-03-02T11:19:24;3.30;;;1.30;;
577;SDS011;275;48.492;9.214;2024-03-02T11:21:51;3.30;;;1.57;;
577;SDS011;275;48.492;9.214;2024-03-02T11:24:29;6.53;;;3.60;;
577;SDS011;275;48.492;9.214;2024-03-02T11:27:00;3.60;;;1.97;;
577;SDS011;275;48.492;9.214;2024-03-02T11:29:43;3.83;;;1.80;;
577;SDS011;275;48.492;9.214;2024-03-02T11:32:13;3.47;;;1.50;;
577;SDS011;275;48.492;9.214;2024-03-02T11:34:42;3.60;;;1.90;;
577;SDS011;275;48.492;9.214;2024-03-02T11:37:11;3.40;;;1.83;;
577;SDS011;275;48.492;9.214;2024-03-02T11:39:40;3.70;;;2.07;;
577;SDS011;275;48.492;9.214;2024-03-02T11:42:08;5.33;;;3.20;;
577;SDS011;275;48.492;9.214;2024-03-02T11:44:35;4.30;;;2.30;;
577;SDS011;275;48.492;9.214;2024-03-02T11:47:05;3.50;;;2.03;;
577;SDS011;275;48.492;9.214;2024-03-02T11:49:38;3.33;;;1.80;;
577;SDS011;275;48.492;9.214;2024-03-02T11:52:07;4.57;;;2.30;;
577;SDS011;275;48.492;9.214;2024-03-02T11:54:34;3.40;;;1.60;;
577;SDS011;275;48.492;9.214;2024-03-02T11:57:06;4.60;;;2.40;;
577;SDS011;275;48.492;9.214;2024-03-02T11:59:33;5.97;;;2.10;;
577;SDS011;275;48.492;9.214;2024-03-02T12:02:01;4.50;;;2.33;;
577;SDS011;275;48.492;9.214;2024-03-02T12:04:28;3.80;;;2.47;;
577;SDS011;275;48.492;9.214;2024-03-02T12:06:56;4.00;;;2.73;;
577;SDS011;275;48.492;9.214;2024-03-02T12:09:25;3.50;;;2.60;;
577;SDS011;275;48.492;9.214;2024-03-02T12:12:02;4.13;;;2.20;;
577;SDS011;275;48.492;9.214;2024-03-02T12:14:31;3.23;;;2.27;;
577;SDS011;275;48.492;9.214;2024-03-02T12:16:59;3.80;;;2.10;;
577;SDS011;275;48.492;9.214;2024-03-02T12:19:25;3.80;;;2.50;;
577;SDS011;275;48.492;9.214;2024-03-02T12:21:54;4.87;;;2.53;;
577;SDS011;275;48.492;9.214;2024-03-02T12:24:22;4.40;;;2.33;;
577;SDS011;275;48.492;9.214;2024-03-02T12:26:49;3.40;;;2.20;;
577;SDS011;275;48.492;9.214;2024-03-02T12:29:17;4.27;;;2.83;;
577;SDS011;275;48.492;9.214;2024-03-02T12:31:47;5.27;;;1.60;;
577;SDS011;275;48.492;9.214;2024-03-02T12:34:15;4.10;;;2.17;;
577;SDS011;275;48.492;9.214;2024-03-02T12:36:43;3.67;;;1.90;;
577;SDS011;275;48.492;9.214;2024-03-02T12:39:12;3.83;;;1.87;;
577;SDS011;275;48.492;9.214;2024-03-02T12:41:39;3.77;;;2.00;;
577;SDS011;275;48.492;9.214;2024-03-02T12:44:07;3.53;;;1.80;;
577;SDS011;275;48.492;9.214;2024-03-02T12:46:34;3.90;;;2.13;;
577;SDS011;275;48.492;9.214;2024-03-02T12:49:07;3.20;;;1.50;;
577;SDS011;275;48.492;9.214;2024-03-02T12:51:35;3.53;;;1.83;;
577;SDS011;275;48.492;9.214;2024-03-02T12:54:03;3.80;;;2.20;;
577;SDS011;275;48.492;9.214;2024-03-02T12:56:30;4.23;;;1.53;;
577;SDS011;275;48.492;9.214;2024-03-02T12:58:58;3.57;;;1.90;;
577;SDS011;275;48.492;9.214;2024-03-02T13:01:25;3.23;;;1.80;;
577;SDS011;275;48.492;9.214;2024-03-02T13:03:52;3.27;;;1.50;;
577;SDS011;275;48.492;9.214;2024-03-02T13:06:22;3.70;;;1.80;;
577;SDS011;275;48.492;9.214;2024-03-02T13:08:49;3.77;;;1.93;;
577;SDS011;275;48.492;9.214;2024-03-02T13:11:16;3.67;;;1.43;;
577;SDS011;275;48.492;9.214;2024-03-02T13:13:43;3.50;;;1.30;;
577;SDS011;275;48.492;9.214;2024-03-02T13:16:10;2.70;;;1.00;;
577;SDS011;275;48.492;9.214;2024-03-02T13:18:38;3.70;;;1.37;;
577;SDS011;275;48.492;9.214;2024-03-02T13:21:06;3.30;;;1.60;;
577;SDS011;275;48.492;9.214;2024-03-02T13:23:34;3.97;;;1.63;;
577;SDS011;275;48.492;9.214;2024-03-02T13:26:01;10.70;;;8.70;;
577;SDS011;275;48.492;9.214;2024-03-02T13:28:28;2.93;;;1.27;;
577;SDS011;275;48.492;9.214;2024-03-02T13:30:55;2.77;;;1.10;;
577;SDS011;275;48.492;9.214;2024-03-02T13:33:23;3.37;;;1.60;;
577;SDS011;275;48.492;9.214;2024-03-02T13:35:50;5.00;;;2.67;;
577;SDS011;275;48.492;9.214;2024-03-02T13:38:17;3.60;;;2.00;;
577;SDS011;275;48.492;9.214;2024-03-02T13:40:46;2.87;;;1.00;;
577;SDS011;275;48.492;9.214;2024-03-02T13:43:16;3.00;;;1.10;;
577;SDS011;275;48.492;9.214;2024-03-02T13:45:43;3.30;;;1.50;;
577;SDS011;275;48.492;9.214;2024-03-02T13:48:10;3.17;;;1.70;;
577;SDS011;275;48.492;9.214;2024-03-02T13:50:37;3.93;;;1.80;;
577;SDS011;275;48.492;9.214;2024-03-02T13:53:04;5.73;;;2.17;;
577;SDS011;275;48.492;9.214;2024-03-02T13:55:31;3.50;;;1.63;;
577;SDS011;275;48.492;9.214;2024-03-02T13:58:00;5.10;;;1.60;;
577;SDS011;275;48.492;9.214;2024-03-02T14:00:27;3.37;;;1.50;;
577;SDS011;275;48.492;9.214;2024-03-02T14:02:54;3.30;;;1.40;;
577;SDS011;275;48.492;9.214;2024-03-02T14:05:21;3.97;;;1.63;;
577;SDS011;275;48.492;9.214;2024-03-02T14:07:48;3.30;;;1.20;;
577;SDS011;275;48.492;9.214;2024-03-02T14:10:15;4.07;;;1.80;;
577;SDS011;275;48.492;9.214;2024-03-02T14:12:47;3.03;;;1.40;;
577;SDS011;275;48.492;9.214;2024-03-02T14:15:15;3.10;;;1.57;;
577;SDS011;275;48.492;9.214;2024-03-02T14:17:42;3.40;;;1.30;;
577;SDS011;275;48.492;9.214;2024-03-02T14:20:09;5.00;;;1.67;;
577;SDS011;275;48.492;9.214;2024-03-02T14:22:38;5.60;;;2.10;;
577;SDS011;275;48.492;9.214;2024-03-02T14:25:05;3.80;;;1.50;;
577;SDS011;275;48.492;9.214;2024-03-02T14:27:33;3.80;;;1.90;;
577;SDS011;275;48.492;9.214;2024-03-02T14:30:00;4.87;;;2.13;;
577;SDS011;275;48.492;9.214;2024-03-02T14:32:28;5.13;;;1.63;;
577;SDS011;275;48.492;9.214;2024-03-02T14:34:55;5.37;;;3.30;;
577;SDS011;275;48.492;9.214;2024-03-02T14:37:22;4.67;;;2.83;;
577;SDS011;275;48.492;9.214;2024-03-02T14:39:49;4.00;;;2.40;;
577;SDS011;275;48.492;9.214;2024-03-02T14:42:16;4.60;;;3.00;;
577;SDS011;275;48.492;9.214;2024-03-02T14:44:43;4.60;;;2.90;;
577;SDS011;275;48.492;9.214;2024-03-02T14:47:10;5.03;;;3.00;;
577;SDS011;275;48.492;9.214;2024-03-02T14:49:39;4.40;;;3.00;;
577;SDS011;275;48.492;9.214;2024-03-02T14:52:06;4.40;;;2.77;;
577;SDS011;275;48.492;9.214;2024-03-02T14:54:34;4.23;;;2.63;;
577;SDS011;275;48.492;9.214;2024-03-02T14:57:01;4.07;;;2.40;;
577;SDS011;275;48.492;9.214;2024-03-02T14:59:28;3.93;;;2.63;;
577;SDS011;275;48.492;9.214;2024-03-02T15:01:55;4.30;;;2.70;;
577;SDS011;275;48.492;9.214;2024-03-02T15:04:22;4.60;;;2.70;;
577;SDS011;275;48.492;9.214;2024-03-02T15:06:51;3.70;;;1.77;;
577;SDS011;275;48.492;9.214;2024-03-02T15:09:17;3.30;;;1.77;;
577;SDS011;275;48.492;9.214;2024-03-02T15:11:45;3.00;;;1.40;;
577;SDS011;275;48.492;9.214;2024-03-02T15:14:12;4.70;;;2.97;;
577;SDS011;275;48.492;9.214;2024-03-02T15:16:39;3.60;;;1.70;;
577;SDS011;275;48.492;9.214;2024-03-02T15:19:07;3.07;;;1.50;;
577;SDS011;275;48.492;9.214;2024-03-02T15:21:34;4.47;;;2.10;;
577;SDS011;275;48.492;9.214;2024-03-02T15:24:02;4.20;;;2.20;;
577;SDS011;275;48.492;9.214;2024-03-02T15:26:29;3.67;;;2.40;;
577;SDS011;275;48.492;9.214;2024-03-02T15:28:56;3.23;;;1.87;;
577;SDS011;275;48.492;9.214;2024-03-02T15:31:24;2.90;;;1.37;;
577;SDS011;275;48.492;9.214;2024-03-02T15:33:51;3.97;;;1.67;;